createdAt,value
2017-02-13T13:32:32.912Z,59.42
2017-02-13T13:33:41.634Z,61.23
2017-02-13T13:34:50.356Z,60.66
2017-02-13T13:35:59.129Z,59.9
2017-02-13T13:37:08.245Z,59.61
2017-02-13T13:38:16.963Z,59.23
2017-02-13T13:39:25.739Z,58.66
2017-02-13T13:40:34.481Z,60.28
2017-02-13T13:41:43.185Z,60.18
2017-02-13T13:42:52.328Z,59.05
2017-02-13T13:44:01.065Z,59.8
2017-02-13T13:45:09.789Z,59.8
2017-02-13T13:46:18.511Z,60.38
2017-02-13T13:47:27.633Z,59.71
2017-02-13T13:48:36.377Z,60.28
2017-02-13T13:49:45.515Z,59.71
2017-02-13T13:50:54.256Z,59.71
2017-02-13T13:52:03.378Z,59.61
2017-02-13T13:53:12.525Z,60.28
2017-02-13T13:54:21.285Z,60.85
2017-02-13T13:55:30.004Z,61.32
2017-02-13T13:56:38.752Z,61.99
2017-02-13T13:57:47.863Z,61.61
2017-02-13T13:58:56.595Z,59.9
2017-02-13T14:00:05.735Z,59.71
2017-02-13T14:01:14.455Z,59.8
2017-02-13T14:02:23.199Z,60.18
2017-02-13T14:03:32.734Z,59.33
2017-02-13T14:04:41.476Z,59.9
2017-02-13T14:05:50.241Z,59.9
2017-02-13T14:06:58.985Z,60.28
2017-02-13T14:08:08.098Z,59.61
2017-02-13T14:09:17.232Z,59.71
2017-02-13T14:10:25.968Z,60.47
2017-02-13T14:11:34.704Z,60.47
2017-02-13T14:12:43.431Z,59.8
2017-02-13T14:13:52.166Z,60.18
2017-02-13T14:15:00.866Z,60.09
2017-02-13T14:16:09.607Z,59.9
2017-02-13T14:17:18.350Z,60.47
2017-02-13T14:18:27.089Z,60.18
2017-02-13T14:19:35.829Z,60.18
2017-02-13T14:20:44.564Z,60.09
2017-02-13T14:21:53.300Z,59.71
2017-02-13T14:23:02.445Z,59.33
2017-02-13T14:24:11.176Z,59.23
2017-02-13T14:25:20.319Z,59.05
2017-02-13T14:26:29.044Z,59.71
2017-02-13T14:27:37.805Z,60.94
2017-02-13T14:28:46.944Z,60.75
2017-02-13T14:29:55.718Z,61.13
2017-02-13T14:31:04.849Z,61.61
2017-02-13T14:32:13.592Z,60.85
2017-02-13T14:33:22.359Z,61.04
2017-02-13T14:34:31.084Z,61.13
2017-02-13T14:35:39.811Z,59.99
2017-02-13T14:36:48.543Z,60.38
2017-02-13T14:37:57.268Z,60.28
2017-02-13T14:39:05.991Z,61.8
2017-02-13T14:40:14.730Z,64.56
2017-02-13T14:41:23.504Z,64.27
2017-02-13T14:42:32.234Z,64.65
2017-02-13T14:43:40.989Z,65.32
2017-02-13T14:44:50.123Z,65.13
2017-02-13T14:45:58.858Z,65.99
2017-02-13T14:47:07.571Z,65.76
2017-02-13T14:48:16.284Z,66.33
2017-02-13T14:49:25.421Z,66.24
2017-02-13T14:50:34.177Z,64.72
2017-02-13T14:51:42.919Z,64.62
2017-02-13T14:52:52.454Z,64.43
2017-02-13T14:54:01.195Z,66.24
2017-02-13T14:55:09.919Z,65
2017-02-13T14:56:19.074Z,64.81
2017-02-13T14:57:27.800Z,64.9
2017-02-13T14:58:36.522Z,64.72
2017-02-13T14:59:45.280Z,65.76
2017-02-13T15:00:53.992Z,65.95
2017-02-13T15:02:02.724Z,66.05
2017-02-13T15:03:11.872Z,65
2017-02-13T15:04:20.987Z,65
2017-02-13T15:05:29.710Z,64.72
2017-02-13T15:06:38.458Z,64.62
2017-02-13T15:07:47.570Z,64.62
2017-02-13T15:08:57.092Z,64.43
2017-02-13T15:10:05.845Z,64.34
2017-02-13T15:11:14.565Z,65.19
2017-02-13T15:12:23.308Z,66.24
2017-02-13T15:13:32.046Z,65.92
2017-02-13T15:14:41.162Z,66.05
2017-02-13T15:15:49.901Z,65.63
2017-02-13T15:16:58.615Z,65.54
2017-02-13T15:18:07.391Z,66.3
2017-02-13T15:19:16.123Z,67.34
2017-02-13T15:20:25.235Z,66.96
2017-02-13T15:21:33.965Z,68.29
2017-02-13T15:22:42.705Z,66.77
2017-02-13T15:23:51.426Z,66.58
2017-02-13T15:25:00.188Z,66.3
2017-02-13T15:26:08.946Z,66.01
2017-02-13T15:27:17.688Z,67.06
2017-02-13T15:28:26.426Z,67.06
2017-02-13T15:29:35.569Z,66.01
2017-02-13T15:30:44.307Z,66.39
2017-02-13T15:31:53.448Z,67.34
2017-02-13T15:33:02.167Z,66.11
2017-02-13T15:34:10.898Z,66.01
2017-02-13T15:35:19.637Z,66.87
2017-02-13T15:36:28.358Z,67.63
2017-02-13T15:37:37.108Z,68.01
2017-02-13T15:38:45.831Z,66.11
2017-02-13T15:39:54.569Z,66.2
2017-02-13T15:41:03.818Z,67.25
2017-02-13T15:42:12.591Z,67.82
2017-02-13T15:43:21.347Z,66.83
2017-02-13T15:44:30.087Z,67.79
2017-02-13T15:45:39.206Z,67.31
2017-02-13T15:46:47.936Z,67.02
2017-02-13T15:47:56.669Z,68.26
2017-02-13T15:49:05.407Z,68.44
2017-02-13T15:50:14.528Z,68.92
2017-02-13T15:51:23.265Z,68.83
2017-02-13T15:52:32.021Z,68.73
2017-02-13T15:53:40.721Z,68.16
2017-02-13T15:54:49.469Z,67.88
2017-02-13T15:55:58.221Z,68.92
2017-02-13T15:57:06.941Z,68.73
2017-02-13T15:58:15.667Z,68.83
2017-02-13T15:59:24.392Z,68.92
2017-02-13T16:00:33.527Z,68.83
2017-02-13T16:01:42.686Z,69.49
2017-02-13T16:02:51.429Z,68.92
2017-02-13T16:04:00.585Z,69.59
2017-02-13T16:05:09.836Z,69.84
2017-02-13T16:06:18.548Z,70.03
2017-02-13T16:07:27.279Z,70.12
2017-02-13T16:08:36.032Z,69.84
2017-02-13T16:09:44.756Z,69.74
2017-02-13T16:10:54.255Z,70.12
2017-02-13T16:12:03.004Z,69.84
2017-02-13T16:13:11.724Z,69.74
2017-02-13T16:14:20.468Z,70.59
2017-02-13T16:15:29.161Z,71.17
2017-02-13T16:16:37.885Z,71.36
2017-02-13T16:17:46.651Z,71.26
2017-02-13T16:18:55.377Z,71.26
2017-02-13T16:20:04.100Z,71.92
2017-02-13T16:21:13.228Z,72.36
2017-02-13T16:22:21.950Z,72.36
2017-02-13T16:23:30.672Z,72.08
2017-02-13T16:24:39.409Z,72.84
2017-02-13T16:25:48.541Z,72.36
2017-02-13T16:26:57.289Z,73.22
2017-02-13T16:28:06.423Z,73.69
2017-02-13T16:29:15.167Z,73.22
2017-02-13T16:30:24.301Z,73.03
2017-02-13T16:31:33.015Z,73.6
2017-02-13T16:32:42.142Z,73.6
2017-02-13T16:33:50.864Z,74.16
2017-02-13T16:34:59.987Z,74.35
2017-02-13T16:36:08.730Z,74.64
2017-02-13T16:37:17.855Z,74.54
2017-02-13T16:38:26.985Z,75.11
2017-02-13T16:39:35.755Z,75.07
2017-02-13T16:40:44.480Z,74.88
2017-02-13T16:41:53.599Z,74.79
2017-02-13T16:43:02.318Z,75.55
2017-02-13T16:44:11.043Z,75.17
2017-02-13T16:45:19.790Z,74.98
2017-02-13T16:46:28.511Z,74.41
2017-02-13T16:47:37.260Z,74.79
2017-02-13T16:48:46.004Z,75.26
2017-02-13T16:49:54.735Z,75.36
2017-02-13T16:51:03.438Z,75.26
2017-02-13T16:52:12.171Z,75.26
2017-02-13T16:53:20.899Z,75.36
2017-02-13T16:54:29.611Z,75.36
2017-02-13T16:55:38.349Z,75.26
2017-02-13T16:56:47.076Z,75.26
2017-02-13T16:57:55.797Z,75.17
2017-02-13T16:59:04.958Z,75.07
2017-02-13T17:00:14.068Z,75.55
2017-02-13T17:01:22.805Z,75.45
2017-02-13T17:02:31.564Z,75.55
2017-02-13T17:03:40.317Z,75.45
2017-02-13T17:04:49.065Z,75.36
2017-02-13T17:05:57.796Z,75.84
2017-02-13T17:07:06.513Z,75.79
2017-02-13T17:08:15.243Z,75.89
2017-02-13T17:09:23.982Z,75.7
2017-02-13T17:10:33.101Z,75.89
2017-02-13T17:11:41.842Z,76.36
2017-02-13T17:12:50.972Z,75.98
2017-02-13T17:13:59.703Z,76.65
2017-02-13T17:15:08.423Z,76.74
2017-02-13T17:16:17.135Z,76.36
2017-02-13T17:17:26.285Z,77.12
2017-02-13T17:18:35.433Z,76.36
2017-02-13T17:19:44.139Z,77.31
2017-02-13T17:20:52.882Z,77.22
2017-02-13T17:22:01.614Z,77.31
2017-02-13T17:23:10.375Z,76.46
2017-02-13T17:24:19.093Z,76.46
2017-02-13T17:25:27.823Z,76.46
2017-02-13T17:26:36.959Z,76.84
2017-02-13T17:27:45.724Z,76.46
2017-02-13T17:28:54.484Z,76.65
2017-02-13T17:30:03.227Z,76.55
2017-02-13T17:31:11.931Z,77.31
2017-02-13T17:32:20.697Z,77.5
2017-02-13T17:33:29.815Z,77.69
2017-02-13T17:34:38.543Z,77.88
2017-02-13T17:35:47.286Z,77.4
2017-02-13T17:36:56.044Z,77.31
2017-02-13T17:38:04.747Z,77.12
2017-02-13T17:39:13.860Z,77.4
2017-02-13T17:40:23.007Z,77.31
2017-02-13T17:41:31.737Z,77.4
2017-02-13T17:42:40.856Z,77.4
2017-02-13T17:43:49.974Z,77.78
2017-02-13T17:44:58.691Z,77.4
2017-02-13T17:46:07.439Z,77.65
2017-02-13T17:47:16.555Z,77.65
2017-02-13T17:48:26.075Z,78.03
2017-02-13T17:49:34.829Z,77.94
2017-02-13T17:50:43.545Z,78.22
2017-02-13T17:51:52.263Z,77.56
2017-02-13T17:53:00.994Z,78.03
2017-02-13T17:54:09.706Z,77.75
2017-02-13T17:55:18.433Z,78.13
2017-02-13T17:56:27.160Z,77.84
2017-02-13T17:57:36.281Z,77.94
2017-02-13T17:58:45.029Z,77.37
2017-02-13T17:59:53.738Z,77.37
2017-02-13T18:01:03.263Z,77.46
2017-02-13T18:02:12.403Z,77.56
2017-02-13T18:03:21.540Z,77.75
2017-02-13T18:04:30.247Z,77.46
2017-02-13T18:05:39.008Z,77.56
2017-02-13T18:06:47.736Z,77.65
2017-02-13T18:07:56.464Z,77.94
2017-02-13T18:09:05.578Z,78.03
2017-02-13T18:10:14.322Z,78.03
2017-02-13T18:11:23.458Z,78.13
2017-02-13T18:12:32.189Z,77.84
2017-02-13T18:13:40.936Z,77.75
2017-02-13T18:14:49.686Z,78.13
2017-02-13T18:15:58.838Z,77.84
2017-02-13T18:17:07.546Z,78.13
2017-02-13T18:18:16.727Z,78.41
2017-02-13T18:19:25.464Z,78.88
2017-02-13T18:20:34.572Z,78.5
2017-02-13T18:21:43.296Z,78.88
2017-02-13T18:22:52.415Z,78.69
2017-02-13T18:24:01.152Z,79.36
2017-02-13T18:25:09.886Z,79.64
2017-02-13T18:26:19.020Z,79.74
2017-02-13T18:27:27.750Z,79.17
2017-02-13T18:28:36.480Z,79.26
2017-02-13T18:29:45.202Z,79.55
2017-02-13T18:30:53.926Z,79.64
2017-02-13T18:32:02.654Z,80.3
2017-02-13T18:33:11.406Z,80.11
2017-02-13T18:34:20.518Z,79.88
2017-02-13T18:35:29.235Z,79.36
2017-02-13T18:36:37.969Z,79.36
2017-02-13T18:37:46.695Z,79.07
2017-02-13T18:38:55.405Z,79.26
2017-02-13T18:40:04.138Z,78.79
2017-02-13T18:41:12.845Z,78.69
2017-02-13T18:42:22.010Z,79.26
2017-02-13T18:43:30.747Z,79.41
2017-02-13T18:44:39.472Z,79.98
2017-02-13T18:45:48.204Z,80.17
2017-02-13T18:46:56.931Z,79.88
2017-02-13T18:48:06.438Z,79.41
2017-02-13T18:49:15.565Z,79.79
2017-02-13T18:50:24.303Z,80.07
2017-02-13T18:51:33.425Z,80.64
2017-02-13T18:52:42.169Z,80.36
2017-02-13T18:53:50.889Z,80.36
2017-02-13T18:54:59.608Z,80.55
2017-02-13T18:56:08.378Z,79.88
2017-02-13T18:57:17.077Z,80.45
2017-02-13T18:58:25.804Z,80.17
2017-02-13T18:59:34.516Z,80.45
2017-02-13T19:00:43.247Z,80.64
2017-02-13T19:01:51.979Z,80.55
2017-02-13T19:03:00.782Z,80.55
2017-02-13T19:04:09.913Z,80.45
2017-02-13T19:05:18.641Z,80.17
2017-02-13T19:06:27.379Z,80.36
2017-02-13T19:07:36.114Z,80.26
2017-02-13T19:08:44.841Z,80.83
2017-02-13T19:09:53.571Z,80.74
2017-02-13T19:11:02.290Z,81.12
2017-02-13T19:12:11.048Z,80.45
2017-02-13T19:13:19.761Z,80.07
2017-02-13T19:14:28.881Z,80.07
2017-02-13T19:15:38.034Z,80.45
2017-02-13T19:16:46.751Z,80.55
2017-02-13T19:17:55.495Z,80.64
2017-02-13T19:19:04.247Z,80.55
2017-02-13T19:20:12.982Z,80.55
2017-02-13T19:21:22.094Z,80.45
2017-02-13T19:22:30.826Z,81.21
2017-02-13T19:23:39.556Z,81.12
2017-02-13T19:24:48.272Z,81.59
2017-02-13T19:25:56.992Z,80.74
2017-02-13T19:27:05.717Z,80.74
2017-02-13T19:28:14.853Z,80.55
2017-02-13T19:29:23.581Z,80.93
2017-02-13T19:30:32.316Z,81.21
2017-02-13T19:31:41.035Z,81.02
2017-02-13T19:32:49.775Z,81.21
2017-02-13T19:33:58.878Z,81.21
2017-02-13T19:35:07.598Z,81.21
2017-02-13T19:36:16.346Z,81.59
2017-02-13T19:37:25.047Z,80.55
2017-02-13T19:38:33.783Z,80.55
2017-02-13T19:39:42.511Z,80.45
2017-02-13T19:40:51.287Z,80.55
2017-02-13T19:42:00.013Z,80.55
2017-02-13T19:43:08.749Z,80.17
2017-02-13T19:44:17.489Z,79.98
2017-02-13T19:45:26.237Z,80.64
2017-02-13T19:46:34.950Z,80.74
2017-02-13T19:47:43.697Z,80.36
2017-02-13T19:48:52.452Z,80.55
2017-02-13T19:50:01.153Z,80.55
2017-02-13T19:51:10.264Z,80.74
2017-02-13T19:52:19.016Z,80.45
2017-02-13T19:53:27.737Z,80.36
2017-02-13T19:54:36.461Z,80.36
2017-02-13T19:55:45.580Z,80.93
2017-02-13T19:56:54.286Z,80.79
2017-02-13T19:58:03.416Z,80.98
2017-02-13T19:59:12.574Z,81.12
2017-02-13T20:00:21.289Z,80.98
2017-02-13T20:01:30.026Z,81.21
2017-02-13T20:02:38.793Z,80.79
2017-02-13T20:03:47.522Z,80.6
2017-02-13T20:04:56.252Z,80.45
2017-02-13T20:06:04.986Z,80.36
2017-02-13T20:07:14.108Z,80.45
2017-02-13T20:08:22.890Z,80.51
2017-02-13T20:09:31.636Z,80.55
2017-02-13T20:10:40.365Z,80.41
2017-02-13T20:11:49.083Z,79.5
2017-02-13T20:12:57.798Z,80.07
2017-02-13T20:14:06.607Z,80.64
2017-02-13T20:15:15.331Z,80.83
2017-02-13T20:16:24.432Z,79.75
2017-02-13T20:17:33.157Z,79.85
2017-02-13T20:18:41.899Z,80.55
2017-02-13T20:19:50.619Z,80.26
2017-02-13T20:20:59.750Z,80.79
2017-02-13T20:22:08.525Z,80.79
2017-02-13T20:23:17.261Z,80.88
2017-02-13T20:24:25.976Z,80.98
2017-02-13T20:25:35.111Z,80.69
2017-02-13T20:26:43.843Z,81.17
2017-02-13T20:27:52.569Z,81.07
2017-02-13T20:29:01.316Z,81.64
2017-02-13T20:30:10.063Z,81.36
2017-02-13T20:31:18.821Z,81.36
2017-02-13T20:32:27.631Z,81.55
2017-02-13T20:33:36.377Z,82.21
2017-02-13T20:34:45.486Z,82.21
2017-02-13T20:35:54.216Z,82.59
2017-02-13T20:37:02.933Z,82.97
2017-02-13T20:38:11.656Z,83.34
2017-02-13T20:39:20.373Z,83.44
2017-02-13T20:40:29.114Z,82.59
2017-02-13T20:41:37.846Z,82.87
2017-02-13T20:42:46.987Z,83.06
2017-02-13T20:43:55.730Z,82.59
2017-02-13T20:45:04.453Z,82.59
2017-02-13T20:46:13.597Z,82.31
2017-02-13T20:47:22.706Z,81.74
2017-02-13T20:48:31.841Z,81.93
2017-02-13T20:49:40.588Z,82.21
2017-02-13T20:50:49.311Z,81.93
2017-02-13T20:51:58.024Z,82.31
2017-02-13T20:53:07.164Z,82.97
2017-02-13T20:54:15.893Z,82.87
2017-02-13T20:55:24.636Z,82.68
2017-02-13T20:56:33.739Z,82.68
2017-02-13T20:57:42.869Z,82.78
2017-02-13T20:58:51.596Z,82.87
2017-02-13T21:00:00.722Z,82.59
2017-02-13T21:01:09.450Z,82.78
2017-02-13T21:02:18.185Z,83.06
2017-02-13T21:03:26.940Z,82.68
2017-02-13T21:04:35.665Z,82.87
2017-02-13T21:05:44.425Z,82.5
2017-02-13T21:06:53.146Z,82.78
2017-02-13T21:08:01.868Z,83.34
2017-02-13T21:09:10.586Z,83.91
2017-02-13T21:10:19.319Z,83.34
2017-02-13T21:11:28.062Z,83.06
2017-02-13T21:12:37.168Z,83.25
2017-02-13T21:13:45.878Z,83.34
2017-02-13T21:14:54.622Z,83.34
2017-02-13T21:16:03.344Z,83.82
2017-02-13T21:17:12.069Z,83.72
2017-02-13T21:18:21.200Z,83.53
2017-02-13T21:19:29.935Z,84.01
2017-02-13T21:20:39.037Z,83.82
2017-02-13T21:21:47.760Z,83.82
2017-02-13T21:22:56.486Z,83.82
2017-02-13T21:24:05.601Z,83.91
2017-02-13T21:25:14.731Z,83.06
2017-02-13T21:26:23.441Z,82.78
2017-02-13T21:27:32.185Z,82.78
2017-02-13T21:28:41.712Z,82.5
2017-02-13T21:29:50.870Z,83.06
2017-02-13T21:30:59.592Z,82.87
2017-02-13T21:32:08.317Z,82.59
2017-02-13T21:33:17.042Z,82.78
2017-02-13T21:34:25.757Z,83.34
2017-02-13T21:35:34.514Z,83.06
2017-02-13T21:36:44.049Z,83.25
2017-02-13T21:37:52.814Z,83.82
2017-02-13T21:39:01.540Z,84.01
2017-02-13T21:40:10.290Z,83.53
2017-02-13T21:41:19.412Z,83.34
2017-02-13T21:42:28.143Z,84.39
2017-02-13T21:43:36.864Z,83.63
2017-02-13T21:44:45.604Z,83.53
2017-02-13T21:45:54.738Z,84.1
2017-02-13T21:47:03.452Z,84.1
2017-02-13T21:48:12.192Z,84.29
2017-02-13T21:49:20.901Z,84.01
2017-02-13T21:50:30.416Z,84.1
2017-02-13T21:51:39.571Z,84.39
2017-02-13T21:52:48.301Z,84.01
2017-02-13T21:53:57.024Z,84.29
2017-02-13T21:55:05.745Z,84.29
2017-02-13T21:56:14.472Z,84.01
2017-02-13T21:57:23.219Z,84.29
2017-02-13T21:58:31.930Z,84.2
2017-02-13T21:59:41.033Z,84.2
2017-02-13T22:00:50.160Z,84.48
2017-02-13T22:01:59.274Z,84.95
2017-02-13T22:03:07.982Z,84.58
2017-02-13T22:04:16.718Z,85.24
2017-02-13T22:05:25.443Z,84.95
2017-02-13T22:06:34.158Z,85.38
2017-02-13T22:07:42.881Z,85.19
2017-02-13T22:08:51.997Z,84.81
2017-02-13T22:10:00.747Z,85.38
2017-02-13T22:11:09.475Z,85.38
2017-02-13T22:12:18.185Z,85.28
2017-02-13T22:13:26.916Z,84.72
2017-02-13T22:14:35.665Z,85.1
2017-02-13T22:15:44.764Z,84.86
2017-02-13T22:16:53.497Z,84.77
2017-02-13T22:18:02.226Z,85.14
2017-02-13T22:19:10.933Z,84.58
2017-02-13T22:20:19.659Z,85.28
2017-02-13T22:21:28.384Z,85.1
2017-02-13T22:22:37.556Z,85.28
2017-02-13T22:23:47.067Z,84.81
2017-02-13T22:24:56.217Z,85.1
2017-02-13T22:26:04.934Z,84.91
2017-02-13T22:27:13.677Z,85.38
2017-02-13T22:28:22.406Z,85.28
2017-02-13T22:29:31.125Z,85.28
2017-02-13T22:30:39.839Z,85.19
2017-02-13T22:31:48.574Z,85.19
2017-02-13T22:32:57.291Z,85.1
2017-02-13T22:34:06.003Z,84.44
2017-02-13T22:35:14.729Z,85.42
2017-02-13T22:36:23.449Z,85.05
2017-02-13T22:37:32.182Z,85.19
2017-02-13T22:38:41.317Z,85.28
2017-02-13T22:39:50.034Z,85
2017-02-13T22:40:58.809Z,85.28
2017-02-13T22:42:07.538Z,84.91
2017-02-13T22:43:16.282Z,85.19
2017-02-13T22:44:25.425Z,85.28
2017-02-13T22:45:34.171Z,85.76
2017-02-13T22:46:42.914Z,85.38
2017-02-13T22:47:52.059Z,84.91
2017-02-13T22:49:00.828Z,84.63
2017-02-13T22:50:09.577Z,85.19
2017-02-13T22:51:18.291Z,85.1
2017-02-13T22:52:27.008Z,85
2017-02-13T22:53:36.128Z,85
2017-02-13T22:54:45.244Z,85.28
2017-02-13T22:55:53.962Z,85.1
2017-02-13T22:57:02.690Z,85.85
2017-02-13T22:58:11.419Z,85.57
2017-02-13T22:59:20.116Z,85.85
2017-02-13T23:00:29.218Z,85.57
2017-02-13T23:01:38.344Z,85.66
2017-02-13T23:02:47.458Z,85.57
2017-02-13T23:03:56.581Z,85.85
2017-02-13T23:05:05.315Z,85.1
2017-02-13T23:06:14.060Z,85.19
2017-02-13T23:07:22.806Z,85.28
2017-02-13T23:08:31.520Z,85.95
2017-02-13T23:09:40.642Z,85.95
2017-02-13T23:10:49.383Z,85.28
2017-02-13T23:11:58.094Z,85.1
2017-02-13T23:13:06.815Z,85.57
2017-02-13T23:14:15.554Z,85.38
2017-02-13T23:15:24.276Z,85.66
2017-02-13T23:16:33.023Z,85.19
2017-02-13T23:17:42.551Z,85
2017-02-13T23:18:51.269Z,84.81
2017-02-13T23:20:00.004Z,85.1
2017-02-13T23:21:09.113Z,85.1
2017-02-13T23:22:17.823Z,85
2017-02-13T23:23:26.572Z,85
2017-02-13T23:24:35.287Z,84.81
2017-02-13T23:25:44.382Z,85.28
2017-02-13T23:26:53.515Z,85.47
2017-02-13T23:28:02.232Z,86.23
2017-02-13T23:29:10.955Z,86.33
2017-02-13T23:30:20.094Z,86.04
2017-02-13T23:31:29.230Z,86.14
2017-02-13T23:32:37.945Z,86.8
2017-02-13T23:33:46.685Z,86.04
2017-02-13T23:34:55.407Z,86.42
2017-02-13T23:36:04.140Z,86.42
2017-02-13T23:37:13.282Z,86.04
2017-02-13T23:38:22.013Z,86.23
2017-02-13T23:39:31.143Z,85.95
2017-02-13T23:40:39.884Z,86.14
2017-02-13T23:41:48.995Z,86.14
2017-02-13T23:42:57.710Z,86.04
2017-02-13T23:44:06.456Z,86.9
2017-02-13T23:45:15.199Z,86.8
2017-02-13T23:46:23.933Z,86.61
2017-02-13T23:47:32.687Z,86.8
2017-02-13T23:48:41.394Z,86.99
2017-02-13T23:49:50.141Z,86.9
2017-02-13T23:50:58.856Z,86.9
2017-02-13T23:52:07.581Z,87.74
2017-02-13T23:53:16.337Z,86.9
2017-02-13T23:54:25.051Z,86.99
2017-02-13T23:55:34.156Z,87.08
2017-02-13T23:56:43.301Z,86.99
2017-02-13T23:57:52.404Z,87.37
2017-02-13T23:59:01.547Z,87.37
